sensor_id;sensor_type;location;lat;lon;timestamp;pressure;altitude;pressure_sealevel;temperature;humidity
53246;BME280;39569;51.090;-1.786;2023-01-28T00:01:20;102434.00;;;30.02;25.08
53246;BME280;39569;51.090;-1.786;2023-01-28T00:03:48;102422.91;;;29.97;25.30
53246;BME280;39569;51.090;-1.786;2023-01-28T00:06:15;102421.41;;;29.85;25.51
53246;BME280;39569;51.090;-1.786;2023-01-28T00:08:43;102425.78;;;29.81;25.52
53246;BME280;39569;51.090;-1.786;2023-01-28T00:11:12;102420.25;;;29.81;25.51
53246;BME280;39569;51.090;-1.786;2023-01-28T00:13:39;102425.16;;;29.74;25.68
53246;BME280;39569;51.090;-1.786;2023-01-28T00:16:07;102422.94;;;29.71;25.50
53246;BME280;39569;51.090;-1.786;2023-01-28T00:18:35;102426.25;;;29.73;25.36
53246;BME280;39569;51.090;-1.786;2023-01-28T00:21:04;102416.75;;;29.85;25.41
53246;BME280;39569;51.090;-1.786;2023-01-28T00:23:33;102419.03;;;29.93;25.09
53246;BME280;39569;51.090;-1.786;2023-01-28T00:26:02;102416.31;;;29.98;25.38
53246;BME280;39569;51.090;-1.786;2023-01-28T00:28:30;102422.72;;;30.09;25.34
53246;BME280;39569;51.090;-1.786;2023-01-28T00:30:57;102415.03;;;30.11;25.22
53246;BME280;39569;51.090;-1.786;2023-01-28T00:33:24;102422.56;;;30.21;24.71
53246;BME280;39569;51.090;-1.786;2023-01-28T00:35:57;102418.81;;;30.32;24.85
53246;BME280;39569;51.090;-1.786;2023-01-28T00:38:25;102411.09;;;30.34;24.68
53246;BME280;39569;51.090;-1.786;2023-01-28T00:40:52;102408.69;;;30.42;24.78
53246;BME280;39569;51.090;-1.786;2023-01-28T00:43:18;102410.94;;;30.50;25.04
53246;BME280;39569;51.090;-1.786;2023-01-28T00:45:47;102404.69;;;30.65;24.78
53246;BME280;39569;51.090;-1.786;2023-01-28T00:48:13;102403.06;;;30.69;24.90
53246;BME280;39569;51.090;-1.786;2023-01-28T00:50:40;102414.13;;;30.79;24.66
53246;BME280;39569;51.090;-1.786;2023-01-28T00:53:07;102418.34;;;30.86;24.54
53246;BME280;39569;51.090;-1.786;2023-01-28T00:55:34;102414.53;;;30.92;24.66
53246;BME280;39569;51.090;-1.786;2023-01-28T00:58:01;102422.53;;;30.94;24.20
53246;BME280;39569;51.090;-1.786;2023-01-28T01:00:27;102428.91;;;31.00;24.07
53246;BME280;39569;51.090;-1.786;2023-01-28T01:02:55;102428.38;;;31.03;24.13
53246;BME280;39569;51.090;-1.786;2023-01-28T01:05:22;102426.72;;;31.02;24.21
53246;BME280;39569;51.090;-1.786;2023-01-28T01:07:49;102420.38;;;31.06;24.04
53246;BME280;39569;51.090;-1.786;2023-01-28T01:10:17;102428.69;;;31.11;24.12
53246;BME280;39569;51.090;-1.786;2023-01-28T01:12:45;102426.75;;;31.12;24.11
53246;BME280;39569;51.090;-1.786;2023-01-28T01:15:12;102424.53;;;31.09;24.11
53246;BME280;39569;51.090;-1.786;2023-01-28T01:17:40;102426.72;;;31.07;24.57
53246;BME280;39569;51.090;-1.786;2023-01-28T01:20:12;102431.44;;;31.06;24.22
53246;BME280;39569;51.090;-1.786;2023-01-28T01:22:39;102427.53;;;30.97;24.04
53246;BME280;39569;51.090;-1.786;2023-01-28T01:25:07;102426.69;;;30.97;24.62
53246;BME280;39569;51.090;-1.786;2023-01-28T01:27:34;102423.38;;;30.94;24.04
53246;BME280;39569;51.090;-1.786;2023-01-28T01:30:00;102420.03;;;30.87;24.75
53246;BME280;39569;51.090;-1.786;2023-01-28T01:32:28;102425.16;;;30.74;24.71
53246;BME280;39569;51.090;-1.786;2023-01-28T01:34:56;102416.00;;;30.63;24.84
53246;BME280;39569;51.090;-1.786;2023-01-28T01:37:24;102408.56;;;30.64;24.40
53246;BME280;39569;51.090;-1.786;2023-01-28T01:39:51;102420.94;;;30.56;24.75
53246;BME280;39569;51.090;-1.786;2023-01-28T01:42:18;102418.69;;;30.53;24.50
53246;BME280;39569;51.090;-1.786;2023-01-28T01:45:00;102423.44;;;30.63;25.00
53246;BME280;39569;51.090;-1.786;2023-01-28T01:47:32;102416.75;;;30.54;24.92
53246;BME280;39569;51.090;-1.786;2023-01-28T01:50:01;102416.16;;;30.47;24.85
53246;BME280;39569;51.090;-1.786;2023-01-28T01:52:34;102420.28;;;30.44;24.90
53246;BME280;39569;51.090;-1.786;2023-01-28T01:55:05;102426.84;;;30.38;24.59
53246;BME280;39569;51.090;-1.786;2023-01-28T01:57:35;102423.47;;;30.26;24.75
53246;BME280;39569;51.090;-1.786;2023-01-28T02:00:04;102414.84;;;30.23;25.03
53246;BME280;39569;51.090;-1.786;2023-01-28T02:02:36;102410.69;;;30.20;24.80
53246;BME280;39569;51.090;-1.786;2023-01-28T02:05:04;102417.50;;;30.13;25.20
53246;BME280;39569;51.090;-1.786;2023-01-28T02:07:34;102418.91;;;30.10;25.13
53246;BME280;39569;51.090;-1.786;2023-01-28T02:10:02;102419.63;;;30.00;25.24
53246;BME280;39569;51.090;-1.786;2023-01-28T02:12:33;102416.59;;;30.02;25.36
53246;BME280;39569;51.090;-1.786;2023-01-28T02:15:04;102409.69;;;29.99;24.94
53246;BME280;39569;51.090;-1.786;2023-01-28T02:17:31;102421.72;;;29.88;25.10
53246;BME280;39569;51.090;-1.786;2023-01-28T02:20:00;102416.50;;;29.92;25.06
53246;BME280;39569;51.090;-1.786;2023-01-28T02:22:57;102418.75;;;29.95;25.23
53246;BME280;39569;51.090;-1.786;2023-01-28T02:25:48;102415.63;;;29.86;25.11
53246;BME280;39569;51.090;-1.786;2023-01-28T02:28:31;102423.59;;;29.83;25.12
53246;BME280;39569;51.090;-1.786;2023-01-28T02:31:05;102420.19;;;29.71;25.38
53246;BME280;39569;51.090;-1.786;2023-01-28T02:33:38;102420.66;;;29.68;25.29
53246;BME280;39569;51.090;-1.786;2023-01-28T02:36:14;102421.72;;;29.62;25.38
53246;BME280;39569;51.090;-1.786;2023-01-28T02:38:45;102420.00;;;29.56;25.44
53246;BME280;39569;51.090;-1.786;2023-01-28T02:41:18;102423.78;;;29.50;25.33
53246;BME280;39569;51.090;-1.786;2023-01-28T02:43:48;102425.06;;;29.42;25.42
53246;BME280;39569;51.090;-1.786;2023-01-28T02:46:20;102438.25;;;29.40;25.80
53246;BME280;39569;51.090;-1.786;2023-01-28T02:49:09;102436.78;;;29.33;25.54
53246;BME280;39569;51.090;-1.786;2023-01-28T02:51:47;102437.88;;;29.32;25.43
53246;BME280;39569;51.090;-1.786;2023-01-28T02:54:23;102441.97;;;29.29;25.50
53246;BME280;39569;51.090;-1.786;2023-01-28T02:56:56;102453.47;;;29.21;25.47
53246;BME280;39569;51.090;-1.786;2023-01-28T02:59:32;102446.53;;;29.19;25.55
53246;BME280;39569;51.090;-1.786;2023-01-28T03:02:03;102447.88;;;29.16;25.41
53246;BME280;39569;51.090;-1.786;2023-01-28T03:04:37;102448.66;;;29.12;25.80
53246;BME280;39569;51.090;-1.786;2023-01-28T03:07:07;102456.72;;;29.01;25.71
53246;BME280;39569;51.090;-1.786;2023-01-28T03:09:35;102458.59;;;28.96;25.46
53246;BME280;39569;51.090;-1.786;2023-01-28T03:12:06;102462.91;;;28.92;25.79
53246;BME280;39569;51.090;-1.786;2023-01-28T03:14:56;102459.94;;;28.93;25.84
53246;BME280;39569;51.090;-1.786;2023-01-28T03:17:43;102458.94;;;28.83;25.88
53246;BME280;39569;51.090;-1.786;2023-01-28T03:20:34;102456.53;;;28.86;25.88
53246;BME280;39569;51.090;-1.786;2023-01-28T03:23:23;102455.53;;;28.76;25.86
53246;BME280;39569;51.090;-1.786;2023-01-28T03:26:11;102463.47;;;28.72;25.85
53246;BME280;39569;51.090;-1.786;2023-01-28T03:29:01;102469.72;;;28.68;25.89
53246;BME280;39569;51.090;-1.786;2023-01-28T03:31:50;102465.25;;;28.62;25.59
53246;BME280;39569;51.090;-1.786;2023-01-28T03:34:36;102467.75;;;28.63;25.76
53246;BME280;39569;51.090;-1.786;2023-01-28T03:37:21;102471.66;;;28.67;25.64
53246;BME280;39569;51.090;-1.786;2023-01-28T03:39:48;102461.00;;;28.54;26.13
53246;BME280;39569;51.090;-1.786;2023-01-28T03:42:15;102483.81;;;28.55;25.92
53246;BME280;39569;51.090;-1.786;2023-01-28T03:44:43;102477.75;;;28.53;26.12
53246;BME280;39569;51.090;-1.786;2023-01-28T03:47:19;102484.06;;;28.53;26.00
53246;BME280;39569;51.090;-1.786;2023-01-28T03:49:47;102482.88;;;28.49;25.88
53246;BME280;39569;51.090;-1.786;2023-01-28T03:52:15;102469.31;;;28.43;25.56
53246;BME280;39569;51.090;-1.786;2023-01-28T03:54:43;102476.72;;;28.42;26.06
53246;BME280;39569;51.090;-1.786;2023-01-28T03:57:12;102462.31;;;28.35;25.73
53246;BME280;39569;51.090;-1.786;2023-01-28T03:59:38;102468.91;;;28.34;25.93
53246;BME280;39569;51.090;-1.786;2023-01-28T04:02:05;102468.78;;;28.29;26.24
53246;BME280;39569;51.090;-1.786;2023-01-28T04:04:34;102455.56;;;28.26;26.21
53246;BME280;39569;51.090;-1.786;2023-01-28T04:07:01;102455.72;;;28.20;26.29
53246;BME280;39569;51.090;-1.786;2023-01-28T04:09:27;102459.31;;;28.20;26.13
53246;BME280;39569;51.090;-1.786;2023-01-28T04:11:54;102461.97;;;28.15;25.94
53246;BME280;39569;51.090;-1.786;2023-01-28T04:14:21;102451.22;;;28.13;26.17
53246;BME280;39569;51.090;-1.786;2023-01-28T04:16:48;102462.47;;;28.12;26.21
53246;BME280;39569;51.090;-1.786;2023-01-28T04:19:14;102456.88;;;28.07;26.14
53246;BME280;39569;51.090;-1.786;2023-01-28T04:21:43;102460.53;;;28.12;25.87
53246;BME280;39569;51.090;-1.786;2023-01-28T04:24:09;102473.88;;;28.04;26.14
53246;BME280;39569;51.090;-1.786;2023-01-28T04:26:36;102464.53;;;28.05;26.17
53246;BME280;39569;51.090;-1.786;2023-01-28T04:29:03;102453.53;;;28.05;25.82
53246;BME280;39569;51.090;-1.786;2023-01-28T04:31:31;102445.28;;;28.05;25.68
53246;BME280;39569;51.090;-1.786;2023-01-28T04:33:58;102457.78;;;27.96;25.98
53246;BME280;39569;51.090;-1.786;2023-01-28T04:36:25;102456.22;;;27.88;26.19
53246;BME280;39569;51.090;-1.786;2023-01-28T04:38:53;102457.78;;;27.84;26.50
53246;BME280;39569;51.090;-1.786;2023-01-28T04:41:20;102456.66;;;27.80;26.36
53246;BME280;39569;51.090;-1.786;2023-01-28T04:43:47;102454.13;;;27.79;26.36
53246;BME280;39569;51.090;-1.786;2023-01-28T04:46:14;102460.97;;;27.76;25.91
53246;BME280;39569;51.090;-1.786;2023-01-28T04:48:41;102469.53;;;27.80;25.99
53246;BME280;39569;51.090;-1.786;2023-01-28T04:51:08;102462.88;;;27.76;26.25
53246;BME280;39569;51.090;-1.786;2023-01-28T04:53:35;102455.22;;;27.78;25.74
53246;BME280;39569;51.090;-1.786;2023-01-28T04:56:03;102452.88;;;27.86;26.02
53246;BME280;39569;51.090;-1.786;2023-01-28T04:58:30;102466.47;;;27.76;26.15
53246;BME280;39569;51.090;-1.786;2023-01-28T05:00:57;102462.53;;;27.72;25.95
53246;BME280;39569;51.090;-1.786;2023-01-28T05:03:25;102456.94;;;27.67;26.15
53246;BME280;39569;51.090;-1.786;2023-01-28T05:05:52;102437.13;;;27.65;25.80
53246;BME280;39569;51.090;-1.786;2023-01-28T05:08:19;102437.25;;;27.59;26.04
53246;BME280;39569;51.090;-1.786;2023-01-28T05:10:45;102451.84;;;27.59;26.46
53246;BME280;39569;51.090;-1.786;2023-01-28T05:13:14;102442.66;;;27.54;26.17
53246;BME280;39569;51.090;-1.786;2023-01-28T05:15:40;102445.91;;;27.51;25.87
53246;BME280;39569;51.090;-1.786;2023-01-28T05:18:07;102452.56;;;27.55;26.19
53246;BME280;39569;51.090;-1.786;2023-01-28T05:20:34;102460.91;;;27.60;25.88
53246;BME280;39569;51.090;-1.786;2023-01-28T05:23:01;102457.56;;;27.58;25.97
53246;BME280;39569;51.090;-1.786;2023-01-28T05:25:27;102455.31;;;27.55;26.38
53246;BME280;39569;51.090;-1.786;2023-01-28T05:27:54;102452.56;;;27.55;25.74
53246;BME280;39569;51.090;-1.786;2023-01-28T05:30:22;102459.47;;;27.57;25.92
53246;BME280;39569;51.090;-1.786;2023-01-28T05:32:54;102451.59;;;27.61;26.27
53246;BME280;39569;51.090;-1.786;2023-01-28T05:35:20;102459.38;;;27.52;26.13
53246;BME280;39569;51.090;-1.786;2023-01-28T05:37:47;102467.03;;;27.50;25.91
53246;BME280;39569;51.090;-1.786;2023-01-28T05:40:14;102464.53;;;27.49;26.17
53246;BME280;39569;51.090;-1.786;2023-01-28T05:42:41;102471.94;;;27.48;26.38
53246;BME280;39569;51.090;-1.786;2023-01-28T05:45:09;102481.25;;;27.47;25.78
53246;BME280;39569;51.090;-1.786;2023-01-28T05:47:37;102481.81;;;27.49;25.92
53246;BME280;39569;51.090;-1.786;2023-01-28T05:50:05;102478.72;;;27.46;26.05
53246;BME280;39569;51.090;-1.786;2023-01-28T05:52:32;102476.50;;;27.43;26.19
53246;BME280;39569;51.090;-1.786;2023-01-28T05:54:59;102479.22;;;27.43;25.96
53246;BME280;39569;51.090;-1.786;2023-01-28T05:57:26;102477.59;;;27.42;25.68
53246;BME280;39569;51.090;-1.786;2023-01-28T05:59:52;102465.66;;;27.36;26.24
53246;BME280;39569;51.090;-1.786;2023-01-28T06:02:19;102476.25;;;27.33;26.25
53246;BME280;39569;51.090;-1.786;2023-01-28T06:04:47;102476.38;;;27.26;26.48
53246;BME280;39569;51.090;-1.786;2023-01-28T06:07:14;102485.72;;;27.13;25.93
53246;BME280;39569;51.090;-1.786;2023-01-28T06:09:44;102484.16;;;27.17;25.88
53246;BME280;39569;51.090;-1.786;2023-01-28T06:12:11;102490.47;;;27.18;26.55
53246;BME280;39569;51.090;-1.786;2023-01-28T06:14:38;102482.13;;;27.25;26.09
53246;BME280;39569;51.090;-1.786;2023-01-28T06:17:04;102477.69;;;27.35;25.99
53246;BME280;39569;51.090;-1.786;2023-01-28T06:19:31;102481.88;;;27.38;25.82
53246;BME280;39569;51.090;-1.786;2023-01-28T06:21:59;102474.19;;;27.51;25.57
53246;BME280;39569;51.090;-1.786;2023-01-28T06:24:26;102482.53;;;27.56;26.04
53246;BME280;39569;51.090;-1.786;2023-01-28T06:26:53;102485.13;;;27.63;25.55
53246;BME280;39569;51.090;-1.786;2023-01-28T06:29:19;102501.31;;;27.76;25.90
53246;BME280;39569;51.090;-1.786;2023-01-28T06:31:46;102494.34;;;27.85;25.58
53246;BME280;39569;51.090;-1.786;2023-01-28T06:34:13;102490.38;;;27.92;25.45
53246;BME280;39569;51.090;-1.786;2023-01-28T06:36:40;102484.84;;;28.04;25.16
53246;BME280;39569;51.090;-1.786;2023-01-28T06:39:08;102483.06;;;28.26;25.04
53246;BME280;39569;51.090;-1.786;2023-01-28T06:41:34;102476.97;;;28.41;24.84
53246;BME280;39569;51.090;-1.786;2023-01-28T06:44:01;102487.41;;;28.55;24.76
53246;BME280;39569;51.090;-1.786;2023-01-28T06:46:28;102479.91;;;28.67;24.54
53246;BME280;39569;51.090;-1.786;2023-01-28T06:48:55;102476.22;;;28.78;24.65
53246;BME280;39569;51.090;-1.786;2023-01-28T06:51:21;102473.13;;;28.91;24.38
53246;BME280;39569;51.090;-1.786;2023-01-28T06:53:48;102477.16;;;29.05;24.30
53246;BME280;39569;51.090;-1.786;2023-01-28T06:56:16;102474.28;;;29.12;24.35
53246;BME280;39569;51.090;-1.786;2023-01-28T06:58:43;102484.75;;;29.15;24.14
53246;BME280;39569;51.090;-1.786;2023-01-28T07:01:10;102475.81;;;29.25;24.26
53246;BME280;39569;51.090;-1.786;2023-01-28T07:03:37;102471.25;;;29.35;24.07
53246;BME280;39569;51.090;-1.786;2023-01-28T07:06:04;102464.72;;;29.41;24.09
53246;BME280;39569;51.090;-1.786;2023-01-28T07:08:31;102468.63;;;29.45;24.06
53246;BME280;39569;51.090;-1.786;2023-01-28T07:10:58;102480.53;;;29.51;23.77
53246;BME280;39569;51.090;-1.786;2023-01-28T07:13:26;102487.03;;;29.66;23.87
53246;BME280;39569;51.090;-1.786;2023-01-28T07:15:53;102482.91;;;29.64;23.90
53246;BME280;39569;51.090;-1.786;2023-01-28T07:18:19;102475.59;;;29.74;23.76
53246;BME280;39569;51.090;-1.786;2023-01-28T07:20:47;102478.44;;;29.84;23.97
53246;BME280;39569;51.090;-1.786;2023-01-28T07:23:13;102483.19;;;29.89;23.55
53246;BME280;39569;51.090;-1.786;2023-01-28T07:25:40;102493.75;;;29.97;23.62
53246;BME280;39569;51.090;-1.786;2023-01-28T07:28:07;102496.84;;;30.06;23.36
53246;BME280;39569;51.090;-1.786;2023-01-28T07:30:35;102492.03;;;30.18;23.84
53246;BME280;39569;51.090;-1.786;2023-01-28T07:33:02;102483.66;;;30.08;23.68
53246;BME280;39569;51.090;-1.786;2023-01-28T07:35:29;102488.44;;;30.17;23.72
53246;BME280;39569;51.090;-1.786;2023-01-28T07:37:59;102487.38;;;30.23;23.41
53246;BME280;39569;51.090;-1.786;2023-01-28T07:40:27;102484.13;;;30.26;23.67
53246;BME280;39569;51.090;-1.786;2023-01-28T07:42:54;102493.81;;;30.29;23.75
53246;BME280;39569;51.090;-1.786;2023-01-28T07:45:21;102499.09;;;30.35;22.99
53246;BME280;39569;51.090;-1.786;2023-01-28T07:47:54;102503.91;;;30.50;23.65
53246;BME280;39569;51.090;-1.786;2023-01-28T07:50:21;102503.59;;;30.46;23.41
53246;BME280;39569;51.090;-1.786;2023-01-28T07:52:48;102503.41;;;30.53;22.97
53246;BME280;39569;51.090;-1.786;2023-01-28T07:55:15;102501.81;;;30.62;23.46
53246;BME280;39569;51.090;-1.786;2023-01-28T07:57:49;102497.66;;;30.64;22.94
53246;BME280;39569;51.090;-1.786;2023-01-28T08:00:17;102497.66;;;30.64;23.26
53246;BME280;39569;51.090;-1.786;2023-01-28T08:02:44;102504.31;;;30.68;23.56
53246;BME280;39569;51.090;-1.786;2023-01-28T08:05:15;102504.13;;;30.80;23.28
53246;BME280;39569;51.090;-1.786;2023-01-28T08:07:42;102509.06;;;30.73;23.15
53246;BME280;39569;51.090;-1.786;2023-01-28T08:10:10;102503.91;;;30.86;23.48
53246;BME280;39569;51.090;-1.786;2023-01-28T08:12:37;102510.50;;;30.80;23.22
53246;BME280;39569;51.090;-1.786;2023-01-28T08:15:05;102511.13;;;30.87;23.34
53246;BME280;39569;51.090;-1.786;2023-01-28T08:17:32;102507.59;;;30.97;23.34
53246;BME280;39569;51.090;-1.786;2023-01-28T08:19:59;102509.25;;;31.03;23.12
53246;BME280;39569;51.090;-1.786;2023-01-28T08:22:27;102511.81;;;31.15;23.04
53246;BME280;39569;51.090;-1.786;2023-01-28T08:24:54;102518.97;;;31.11;23.24
53246;BME280;39569;51.090;-1.786;2023-01-28T08:27:21;102510.13;;;31.09;23.14
53246;BME280;39569;51.090;-1.786;2023-01-28T08:29:48;102510.97;;;31.09;23.10
53246;BME280;39569;51.090;-1.786;2023-01-28T08:32:14;102509.31;;;31.08;22.87
53246;BME280;39569;51.090;-1.786;2023-01-28T08:34:41;102513.75;;;31.14;23.13
53246;BME280;39569;51.090;-1.786;2023-01-28T08:37:08;102508.78;;;31.16;23.29
53246;BME280;39569;51.090;-1.786;2023-01-28T08:39:36;102507.44;;;31.19;23.22
53246;BME280;39569;51.090;-1.786;2023-01-28T08:42:04;102500.22;;;31.18;23.23
53246;BME280;39569;51.090;-1.786;2023-01-28T08:44:31;102505.72;;;31.13;22.88
53246;BME280;39569;51.090;-1.786;2023-01-28T08:46:57;102517.59;;;31.08;22.84
53246;BME280;39569;51.090;-1.786;2023-01-28T08:49:24;102520.00;;;31.00;22.98
53246;BME280;39569;51.090;-1.786;2023-01-28T08:51:51;102518.38;;;31.04;23.28
53246;BME280;39569;51.090;-1.786;2023-01-28T08:54:19;102520.84;;;31.00;23.41
53246;BME280;39569;51.090;-1.786;2023-01-28T08:56:48;102524.41;;;30.95;23.41
53246;BME280;39569;51.090;-1.786;2023-01-28T08:59:16;102535.41;;;30.85;23.31
53246;BME280;39569;51.090;-1.786;2023-01-28T09:01:42;102536.75;;;30.83;23.16
53246;BME280;39569;51.090;-1.786;2023-01-28T09:04:09;102532.56;;;30.80;23.32
53246;BME280;39569;51.090;-1.786;2023-01-28T09:06:36;102528.75;;;30.81;23.50
53246;BME280;39569;51.090;-1.786;2023-01-28T09:09:03;102527.38;;;30.84;23.84
53246;BME280;39569;51.090;-1.786;2023-01-28T09:11:30;102527.13;;;30.90;23.36
53246;BME280;39569;51.090;-1.786;2023-01-28T09:13:58;102531.81;;;30.90;23.29
53246;BME280;39569;51.090;-1.786;2023-01-28T09:16:25;102532.44;;;30.97;23.42
53246;BME280;39569;51.090;-1.786;2023-01-28T09:18:52;102533.91;;;31.10;22.92
53246;BME280;39569;51.090;-1.786;2023-01-28T09:21:18;102535.06;;;31.19;22.92
53246;BME280;39569;51.090;-1.786;2023-01-28T09:23:46;102527.84;;;31.18;23.38
53246;BME280;39569;51.090;-1.786;2023-01-28T09:26:12;102527.25;;;31.11;23.64
53246;BME280;39569;51.090;-1.786;2023-01-28T09:28:39;102525.63;;;31.10;23.24
53246;BME280;39569;51.090;-1.786;2023-01-28T09:31:09;102539.72;;;31.13;23.47
53246;BME280;39569;51.090;-1.786;2023-01-28T09:33:38;102542.44;;;31.08;23.05
53246;BME280;39569;51.090;-1.786;2023-01-28T09:36:07;102542.41;;;31.03;23.21
53246;BME280;39569;51.090;-1.786;2023-01-28T09:38:35;102545.13;;;30.98;23.17
53246;BME280;39569;51.090;-1.786;2023-01-28T09:41:14;102556.19;;;31.03;23.22
53246;BME280;39569;51.090;-1.786;2023-01-28T09:43:52;102566.66;;;30.96;23.56
53246;BME280;39569;51.090;-1.786;2023-01-28T09:46:27;102556.13;;;30.88;23.85
53246;BME280;39569;51.090;-1.786;2023-01-28T09:48:58;102546.38;;;30.80;23.73
53246;BME280;39569;51.090;-1.786;2023-01-28T09:51:31;102539.50;;;30.83;23.24
53246;BME280;39569;51.090;-1.786;2023-01-28T09:54:04;102539.44;;;30.78;23.70
53246;BME280;39569;51.090;-1.786;2023-01-28T09:56:35;102548.75;;;30.67;23.26
53246;BME280;39569;51.090;-1.786;2023-01-28T09:59:15;102544.53;;;30.59;24.23
53246;BME280;39569;51.090;-1.786;2023-01-28T10:01:46;102541.06;;;30.42;23.76
53246;BME280;39569;51.090;-1.786;2023-01-28T10:04:25;102555.72;;;30.43;23.73
53246;BME280;39569;51.090;-1.786;2023-01-28T10:07:02;102536.59;;;30.36;23.79
53246;BME280;39569;51.090;-1.786;2023-01-28T10:09:39;102541.50;;;30.29;24.35
53246;BME280;39569;51.090;-1.786;2023-01-28T10:12:21;102540.59;;;30.24;24.32
53246;BME280;39569;51.090;-1.786;2023-01-28T10:15:09;102537.78;;;30.19;24.09
53246;BME280;39569;51.090;-1.786;2023-01-28T10:17:48;102542.97;;;30.10;24.28
53246;BME280;39569;51.090;-1.786;2023-01-28T10:20:19;102549.25;;;30.06;24.18
53246;BME280;39569;51.090;-1.786;2023-01-28T10:22:49;102540.94;;;30.00;24.26
53246;BME280;39569;51.090;-1.786;2023-01-28T10:25:20;102543.28;;;29.92;24.54
53246;BME280;39569;51.090;-1.786;2023-01-28T10:27:49;102532.75;;;29.84;24.53
53246;BME280;39569;51.090;-1.786;2023-01-28T10:30:18;102537.94;;;29.80;24.77
53246;BME280;39569;51.090;-1.786;2023-01-28T10:32:51;102517.78;;;29.75;24.73
53246;BME280;39569;51.090;-1.786;2023-01-28T10:35:18;102513.19;;;29.64;24.55
53246;BME280;39569;51.090;-1.786;2023-01-28T10:37:45;102504.53;;;29.55;24.51
53246;BME280;39569;51.090;-1.786;2023-01-28T10:40:14;102505.97;;;29.58;24.58
53246;BME280;39569;51.090;-1.786;2023-01-28T10:42:42;102509.72;;;29.52;24.94
53246;BME280;39569;51.090;-1.786;2023-01-28T10:45:16;102500.94;;;29.55;24.67
53246;BME280;39569;51.090;-1.786;2023-01-28T10:47:45;102491.78;;;29.49;24.84
53246;BME280;39569;51.090;-1.786;2023-01-28T10:50:17;102505.44;;;29.39;24.72
53246;BME280;39569;51.090;-1.786;2023-01-28T10:52:52;102496.28;;;29.34;24.66
53246;BME280;39569;51.090;-1.786;2023-01-28T10:55:20;102488.88;;;29.34;24.97
53246;BME280;39569;51.090;-1.786;2023-01-28T10:57:47;102489.88;;;29.28;25.40
53246;BME280;39569;51.090;-1.786;2023-01-28T11:02:49;102489.25;;;29.21;25.19
53246;BME280;39569;51.090;-1.786;2023-01-28T11:05:19;102488.16;;;29.22;25.13
53246;BME280;39569;51.090;-1.786;2023-01-28T11:07:46;102481.16;;;29.15;25.01
53246;BME280;39569;51.090;-1.786;2023-01-28T11:10:29;102475.06;;;29.13;25.26
53246;BME280;39569;51.090;-1.786;2023-01-28T11:12:59;102470.50;;;29.01;25.30
53246;BME280;39569;51.090;-1.786;2023-01-28T11:15:26;102462.13;;;28.91;25.41
53246;BME280;39569;51.090;-1.786;2023-01-28T11:17:56;102458.84;;;28.94;25.34
53246;BME280;39569;51.090;-1.786;2023-01-28T11:20:26;102468.69;;;28.90;25.61
53246;BME280;39569;51.090;-1.786;2023-01-28T11:22:54;102466.94;;;28.84;25.45
53246;BME280;39569;51.090;-1.786;2023-01-28T11:25:27;102471.69;;;28.89;25.47
53246;BME280;39569;51.090;-1.786;2023-01-28T11:27:56;102460.22;;;28.75;25.45
53246;BME280;39569;51.090;-1.786;2023-01-28T11:30:26;102466.28;;;28.77;25.68
53246;BME280;39569;51.090;-1.786;2023-01-28T11:32:57;102459.63;;;28.73;25.65
53246;BME280;39569;51.090;-1.786;2023-01-28T11:35:29;102466.22;;;28.72;25.47
53246;BME280;39569;51.090;-1.786;2023-01-28T11:37:56;102471.06;;;28.65;25.62
53246;BME280;39569;51.090;-1.786;2023-01-28T11:40:23;102474.91;;;28.64;25.63
53246;BME280;39569;51.090;-1.786;2023-01-28T11:42:50;102480.41;;;28.64;25.55
53246;BME280;39569;51.090;-1.786;2023-01-28T11:45:26;102480.66;;;28.63;25.65
53246;BME280;39569;51.090;-1.786;2023-01-28T11:48:06;102481.31;;;28.70;25.61
53246;BME280;39569;51.090;-1.786;2023-01-28T11:50:45;102483.72;;;28.66;25.70
53246;BME280;39569;51.090;-1.786;2023-01-28T11:53:27;102485.25;;;28.57;25.62
53246;BME280;39569;51.090;-1.786;2023-01-28T11:56:18;102495.56;;;28.50;25.49
53246;BME280;39569;51.090;-1.786;2023-01-28T11:58:57;102495.22;;;28.47;25.49
53246;BME280;39569;51.090;-1.786;2023-01-28T12:01:36;102492.63;;;28.40;25.87
53246;BME280;39569;51.090;-1.786;2023-01-28T12:04:21;102498.13;;;28.40;25.60
53246;BME280;39569;51.090;-1.786;2023-01-28T12:07:04;102498.63;;;28.37;25.67
53246;BME280;39569;51.090;-1.786;2023-01-28T12:09:39;102499.88;;;28.30;25.76
53246;BME280;39569;51.090;-1.786;2023-01-28T12:12:22;102490.44;;;28.26;26.02
53246;BME280;39569;51.090;-1.786;2023-01-28T12:15:06;102493.88;;;28.33;25.47
53246;BME280;39569;51.090;-1.786;2023-01-28T12:17:44;102483.22;;;28.36;25.33
53246;BME280;39569;51.090;-1.786;2023-01-28T12:20:18;102484.56;;;28.34;25.69
53246;BME280;39569;51.090;-1.786;2023-01-28T12:23:02;102476.97;;;28.41;25.60
53246;BME280;39569;51.090;-1.786;2023-01-28T12:25:45;102480.13;;;28.49;25.59
53246;BME280;39569;51.090;-1.786;2023-01-28T12:28:21;102484.28;;;28.52;25.37
53246;BME280;39569;51.090;-1.786;2023-01-28T12:31:04;102476.00;;;28.63;25.36
53246;BME280;39569;51.090;-1.786;2023-01-28T12:33:55;102473.47;;;28.78;24.86
53246;BME280;39569;51.090;-1.786;2023-01-28T12:36:36;102477.19;;;28.89;25.03
53246;BME280;39569;51.090;-1.786;2023-01-28T12:39:17;102475.25;;;29.06;25.04
53246;BME280;39569;51.090;-1.786;2023-01-28T12:41:52;102470.06;;;29.09;24.87
53246;BME280;39569;51.090;-1.786;2023-01-28T12:44:23;102463.44;;;29.27;24.80
53246;BME280;39569;51.090;-1.786;2023-01-28T12:46:54;102464.31;;;29.33;24.78
53246;BME280;39569;51.090;-1.786;2023-01-28T12:49:28;102462.91;;;29.52;24.86
53246;BME280;39569;51.090;-1.786;2023-01-28T12:52:01;102460.28;;;29.62;24.38
53246;BME280;39569;51.090;-1.786;2023-01-28T12:54:34;102469.06;;;29.80;24.43
53246;BME280;39569;51.090;-1.786;2023-01-28T12:57:06;102457.84;;;29.92;23.83
53246;BME280;39569;51.090;-1.786;2023-01-28T12:59:38;102459.31;;;29.99;23.98